Terminal Aerodrome Forecast
Issued by NWS Sioux Falls, SD

Home | Current Version | Previous Version | Graphics & Text | Print | Product List | Glossary Off
Versions: 1 2 3 4 5 6 7 8 9 10 11 12 13 14

990
FTUS43 KFSD 270520
TAFFSD
TAF
KFSD 270520Z 2706/2806 VRB03KT P6SM SCT120
     FM271100 34004KT P6SM OVC060
     FM271300 36005KT P6SM VCSH OVC050
     FM272000 34005KT P6SM OVC070
     FM272200 32006KT P6SM SCT130
     FM280300 24004KT P6SM SCT150=

USA.gov is the U.S. government's official web portal to all federal, state and local government web resources and services.